createdAt,value
2018-12-30T00:02:19.088Z,7.03
2018-12-30T00:04:47.286Z,7.19
2018-12-30T00:07:15.391Z,7.23
2018-12-30T00:09:43.714Z,7.33
2018-12-30T00:12:11.771Z,7.28
2018-12-30T00:14:39.837Z,7.31
2018-12-30T00:17:07.602Z,7.31
2018-12-30T00:19:42.582Z,7.29
2018-12-30T00:22:05.196Z,7.36
2018-12-30T00:24:32.977Z,7.32
2018-12-30T00:27:00.716Z,7.30
2018-12-30T00:29:28.538Z,7.36
2018-12-30T00:31:56.377Z,7.43
2018-12-30T00:34:24.207Z,7.36
2018-12-30T00:36:52.044Z,7.35
2018-12-30T00:39:19.806Z,7.43
2018-12-30T00:41:47.549Z,7.19
2018-12-30T00:44:15.325Z,7.40
2018-12-30T00:46:43.143Z,7.43
2018-12-30T00:49:10.919Z,7.45
2018-12-30T00:51:38.715Z,7.46
2018-12-30T00:54:06.506Z,7.45
2018-12-30T00:56:34.683Z,7.42
2018-12-30T00:59:02.537Z,7.40
2018-12-30T01:01:30.326Z,7.44
2018-12-30T01:03:58.087Z,7.56
2018-12-30T01:06:25.993Z,7.49
2018-12-30T01:08:53.827Z,7.51
2018-12-30T01:11:21.775Z,7.57
2018-12-30T01:13:49.555Z,7.43
2018-12-30T01:16:17.477Z,7.37
2018-12-30T01:18:45.294Z,7.24
2018-12-30T01:21:13.059Z,7.23
2018-12-30T01:23:40.914Z,7.39
2018-12-30T01:26:09.807Z,7.41
2018-12-30T01:28:37.957Z,7.27
2018-12-30T01:31:05.749Z,7.27
2018-12-30T01:33:33.516Z,7.32
2018-12-30T01:36:01.341Z,7.18
2018-12-30T01:38:29.100Z,7.28
2018-12-30T01:40:59.659Z,7.19
2018-12-30T01:43:27.441Z,7.21
2018-12-30T01:45:55.241Z,7.20
2018-12-30T01:48:23.036Z,7.34
2018-12-30T01:50:51.203Z,7.32
2018-12-30T01:53:19.006Z,7.25
2018-12-30T01:55:46.881Z,7.26
2018-12-30T01:58:15.281Z,7.29
2018-12-30T02:00:43.047Z,7.30
2018-12-30T02:03:10.828Z,7.27
2018-12-30T02:05:40.632Z,7.25
2018-12-30T02:08:08.405Z,7.38
2018-12-30T02:10:36.213Z,7.38
2018-12-30T02:13:03.986Z,7.30
2018-12-30T02:15:31.755Z,7.36
2018-12-30T02:18:00.705Z,7.40
2018-12-30T02:20:28.445Z,7.43
2018-12-30T02:22:56.600Z,7.48
2018-12-30T02:25:24.337Z,7.54
2018-12-30T02:27:52.254Z,7.48
2018-12-30T02:30:20.014Z,7.42
2018-12-30T02:32:47.804Z,7.45
2018-12-30T02:35:15.544Z,7.54
2018-12-30T02:37:46.535Z,7.56
2018-12-30T02:40:14.281Z,7.60
2018-12-30T02:42:42.065Z,7.52
2018-12-30T02:45:09.846Z,7.54
2018-12-30T02:47:37.634Z,7.42
2018-12-30T02:50:05.466Z,7.38
2018-12-30T02:52:33.235Z,7.20
2018-12-30T02:55:01.023Z,7.51
2018-12-30T02:57:29.094Z,7.47
2018-12-30T02:59:56.955Z,7.36
2018-12-30T03:02:24.698Z,7.54
2018-12-30T03:04:52.594Z,7.54
2018-12-30T03:07:20.458Z,7.42
2018-12-30T03:09:48.736Z,7.42
2018-12-30T03:12:16.510Z,7.53
2018-12-30T03:14:44.300Z,7.59
2018-12-30T03:17:12.095Z,7.64
2018-12-30T03:19:39.837Z,7.67
2018-12-30T03:22:07.995Z,7.45
2018-12-30T03:24:35.839Z,7.57
2018-12-30T03:27:03.613Z,7.60
2018-12-30T03:29:31.393Z,7.58
2018-12-30T03:31:59.211Z,7.69
2018-12-30T03:34:27.001Z,7.64
2018-12-30T03:36:56.127Z,7.48
2018-12-30T03:39:23.937Z,7.46
2018-12-30T03:41:51.735Z,7.53
2018-12-30T03:44:19.893Z,7.49
2018-12-30T03:46:47.899Z,7.50
2018-12-30T03:49:15.671Z,7.57
2018-12-30T03:51:43.445Z,7.72
2018-12-30T03:54:11.281Z,7.58
2018-12-30T03:56:39.044Z,7.78
2018-12-30T03:59:07.029Z,7.70
2018-12-30T04:01:34.793Z,7.59
2018-12-30T04:04:02.763Z,7.71
2018-12-30T04:06:30.746Z,7.70
2018-12-30T04:08:58.621Z,7.91
2018-12-30T04:11:26.476Z,7.90
2018-12-30T04:13:54.251Z,7.89
2018-12-30T04:16:21.988Z,7.93
2018-12-30T04:18:49.975Z,7.90
2018-12-30T04:21:17.757Z,7.85
2018-12-30T04:23:45.862Z,7.99
2018-12-30T04:26:13.647Z,8.09
2018-12-30T04:28:41.453Z,8.06
2018-12-30T04:31:09.287Z,7.93
2018-12-30T04:33:37.286Z,7.93
2018-12-30T04:36:05.162Z,7.86
2018-12-30T04:38:32.928Z,7.73
2018-12-30T04:41:02.517Z,7.60
2018-12-30T04:43:30.296Z,7.51
2018-12-30T04:45:58.095Z,7.41
2018-12-30T04:48:25.867Z,7.46
2018-12-30T04:50:53.775Z,7.55
2018-12-30T04:53:21.614Z,7.52
2018-12-30T04:55:51.249Z,7.55
2018-12-30T04:58:19.059Z,7.37
2018-12-30T05:00:46.838Z,7.42
2018-12-30T05:03:14.637Z,7.29
2018-12-30T05:05:42.733Z,7.36
2018-12-30T05:08:10.512Z,7.31
2018-12-30T05:10:38.269Z,7.21
2018-12-30T05:13:06.045Z,7.24
2018-12-30T05:15:33.762Z,7.32
2018-12-30T05:18:01.580Z,7.23
2018-12-30T05:20:29.514Z,7.23
2018-12-30T05:22:57.307Z,7.24
2018-12-30T05:25:25.064Z,7.26
2018-12-30T05:27:53.784Z,7.31
2018-12-30T05:30:21.682Z,7.20
2018-12-30T05:32:49.720Z,7.23
2018-12-30T05:35:17.496Z,7.19
2018-12-30T05:37:45.301Z,7.21
2018-12-30T05:40:13.064Z,7.12
2018-12-30T05:42:41.203Z,7.05
2018-12-30T05:45:09.295Z,7.00
2018-12-30T05:47:37.087Z,6.95
2018-12-30T05:50:06.666Z,7.02
2018-12-30T05:52:41.619Z,6.94
2018-12-30T05:55:05.498Z,6.91
2018-12-30T05:57:33.547Z,6.92
2018-12-30T06:00:01.366Z,6.78
2018-12-30T06:02:29.162Z,6.80
2018-12-30T06:04:56.946Z,6.75
2018-12-30T06:07:24.764Z,6.71
2018-12-30T06:09:52.495Z,6.63
2018-12-30T06:12:20.314Z,6.72
2018-12-30T06:14:50.386Z,6.80
2018-12-30T06:17:18.184Z,6.83
2018-12-30T06:19:45.982Z,6.88
2018-12-30T06:22:13.768Z,6.99
2018-12-30T06:24:41.630Z,7.00
2018-12-30T06:27:09.448Z,7.16
2018-12-30T06:29:37.446Z,7.11
2018-12-30T06:32:05.264Z,7.20
2018-12-30T06:34:33.088Z,7.11
2018-12-30T06:37:00.835Z,7.03
2018-12-30T06:39:28.613Z,7.09
2018-12-30T06:41:56.420Z,7.16
2018-12-30T06:44:26.011Z,7.25
2018-12-30T06:46:53.805Z,7.32
2018-12-30T06:49:21.584Z,7.26
2018-12-30T06:51:49.338Z,7.26
2018-12-30T06:54:17.204Z,7.26
2018-12-30T06:56:44.988Z,7.31
2018-12-30T06:59:12.976Z,7.23
2018-12-30T07:01:41.082Z,7.37
2018-12-30T07:04:08.849Z,7.33
2018-12-30T07:06:38.394Z,7.34
2018-12-30T07:09:06.650Z,7.22
2018-12-30T07:11:34.462Z,7.29
2018-12-30T07:14:02.273Z,7.42
2018-12-30T07:16:30.041Z,7.44
2018-12-30T07:18:58.945Z,7.37
2018-12-30T07:21:27.082Z,7.30
2018-12-30T07:23:54.915Z,7.17
2018-12-30T07:26:24.473Z,7.32
2018-12-30T07:28:52.313Z,7.49
2018-12-30T07:31:20.107Z,7.32
2018-12-30T07:33:47.891Z,7.40
2018-12-30T07:36:15.682Z,7.53
2018-12-30T07:38:43.493Z,7.35
2018-12-30T07:41:11.239Z,7.43
2018-12-30T07:43:38.983Z,7.41
2018-12-30T07:46:06.875Z,7.39
2018-12-30T07:48:34.638Z,7.24
2018-12-30T07:51:02.631Z,7.41
2018-12-30T07:53:30.682Z,7.20
2018-12-30T07:55:58.468Z,7.38
2018-12-30T07:58:26.253Z,7.41
2018-12-30T08:00:54.144Z,7.40
2018-12-30T08:03:21.912Z,7.31
2018-12-30T08:05:49.871Z,7.18
2018-12-30T08:08:18.022Z,7.23
2018-12-30T08:10:46.791Z,7.33
2018-12-30T08:13:14.767Z,7.40
2018-12-30T08:15:42.548Z,7.47
2018-12-30T08:18:10.346Z,7.71
2018-12-30T08:20:38.172Z,7.83
2018-12-30T08:23:05.975Z,7.83
2018-12-30T08:25:33.843Z,7.80
2018-12-30T08:28:01.613Z,7.83
2018-12-30T08:30:29.385Z,7.93
2018-12-30T08:32:57.183Z,7.95
2018-12-30T08:35:25.143Z,8.15
2018-12-30T08:37:52.909Z,8.32
2018-12-30T08:40:20.671Z,8.23
2018-12-30T08:42:48.453Z,8.25
2018-12-30T08:45:16.260Z,8.37
2018-12-30T08:47:44.039Z,8.04
2018-12-30T08:50:11.822Z,8.13
2018-12-30T08:52:39.641Z,8.13
2018-12-30T08:55:07.377Z,8.17
2018-12-30T08:57:35.186Z,8.23
2018-12-30T09:00:03.629Z,8.27
2018-12-30T09:02:31.518Z,8.38
2018-12-30T09:04:59.278Z,8.37
2018-12-30T09:07:27.118Z,8.31
2018-12-30T09:09:54.981Z,8.51
2018-12-30T09:12:22.944Z,8.56
2018-12-30T09:14:50.708Z,8.60
2018-12-30T09:17:18.564Z,8.56
2018-12-30T09:19:46.338Z,8.60
2018-12-30T09:22:14.096Z,8.30
2018-12-30T09:24:41.842Z,8.31
2018-12-30T09:27:09.600Z,8.75
2018-12-30T09:29:37.400Z,9.11
2018-12-30T09:32:05.237Z,9.36
2018-12-30T09:34:33.823Z,9.02
2018-12-30T09:37:01.881Z,9.08
2018-12-30T09:39:29.775Z,9.04
2018-12-30T09:41:57.557Z,8.91
2018-12-30T09:44:25.335Z,8.81
2018-12-30T09:46:53.100Z,8.92
2018-12-30T09:49:21.232Z,8.86
2018-12-30T09:51:48.969Z,8.78
2018-12-30T09:54:19.032Z,8.69
2018-12-30T09:56:48.099Z,8.90
2018-12-30T09:59:15.901Z,9.23
2018-12-30T10:01:43.679Z,9.32
2018-12-30T10:04:11.434Z,9.30
2018-12-30T10:06:39.229Z,9.02
2018-12-30T10:09:07.707Z,9.20
2018-12-30T10:11:35.514Z,9.47
2018-12-30T10:14:03.883Z,9.45
2018-12-30T10:16:31.681Z,9.55
2018-12-30T10:18:59.519Z,9.32
2018-12-30T10:21:27.365Z,9.37
2018-12-30T10:23:56.018Z,9.32
2018-12-30T10:26:23.801Z,9.32
2018-12-30T10:28:51.613Z,9.32
2018-12-30T10:31:21.741Z,9.33
2018-12-30T10:33:49.545Z,9.18
2018-12-30T10:36:17.350Z,9.29
2018-12-30T10:38:45.228Z,9.44
2018-12-30T10:41:13.134Z,9.55
2018-12-30T10:43:40.898Z,9.52
2018-12-30T10:46:08.729Z,9.50
2018-12-30T10:48:36.497Z,9.57
2018-12-30T10:51:04.350Z,10.15
2018-12-30T10:53:32.304Z,10.25
2018-12-30T10:56:00.183Z,10.11
2018-12-30T10:58:28.070Z,11.33
2018-12-30T11:00:55.880Z,11.58
2018-12-30T11:03:23.642Z,11.59
2018-12-30T11:05:51.920Z,11.74
2018-12-30T11:08:19.837Z,11.30
2018-12-30T11:10:50.784Z,11.57
2018-12-30T11:13:18.655Z,11.58
2018-12-30T11:15:46.474Z,11.37
2018-12-30T11:18:14.488Z,10.82
2018-12-30T11:20:42.357Z,10.42
2018-12-30T11:23:10.205Z,10.04
2018-12-30T11:25:38.059Z,9.73
2018-12-30T11:28:05.863Z,9.54
2018-12-30T11:30:34.748Z,9.52
2018-12-30T11:33:02.571Z,9.56
2018-12-30T11:35:30.450Z,9.44
2018-12-30T11:37:58.247Z,9.42
2018-12-30T11:40:28.962Z,9.63
2018-12-30T11:42:56.741Z,9.53
2018-12-30T11:45:24.582Z,9.55
2018-12-30T11:47:52.387Z,9.14
2018-12-30T11:50:20.548Z,9.36
2018-12-30T11:52:48.560Z,9.27
2018-12-30T11:55:16.416Z,9.24
2018-12-30T11:57:44.271Z,9.19
2018-12-30T12:00:12.165Z,9.10
2018-12-30T12:02:39.923Z,9.02
2018-12-30T12:05:07.747Z,8.85
2018-12-30T12:07:36.136Z,8.88
2018-12-30T12:10:04.352Z,8.84
2018-12-30T12:12:32.255Z,8.83
2018-12-30T12:15:00.154Z,8.72
2018-12-30T12:17:27.986Z,8.79
2018-12-30T12:19:55.783Z,9.21
2018-12-30T12:22:23.732Z,9.49
2018-12-30T12:24:55.577Z,9.50
2018-12-30T12:27:23.507Z,9.49
2018-12-30T12:29:51.318Z,9.49
2018-12-30T12:32:19.159Z,9.46
2018-12-30T12:34:49.917Z,9.14
2018-12-30T12:37:17.776Z,9.21
2018-12-30T12:39:45.549Z,9.30
2018-12-30T12:42:13.417Z,9.39
2018-12-30T12:44:41.189Z,9.36
2018-12-30T12:47:09.124Z,9.40
2018-12-30T12:49:36.961Z,9.29
2018-12-30T12:52:04.817Z,9.32
2018-12-30T12:54:32.663Z,9.50
2018-12-30T12:57:00.485Z,9.28
2018-12-30T12:59:28.417Z,9.12
2018-12-30T13:01:56.282Z,9.19
2018-12-30T13:04:24.121Z,9.33
2018-12-30T13:06:51.973Z,9.19
2018-12-30T13:09:19.776Z,9.33
2018-12-30T13:11:47.611Z,9.49
2018-12-30T13:14:15.434Z,9.60
2018-12-30T13:16:43.256Z,9.51
2018-12-30T13:19:13.842Z,9.52
2018-12-30T13:21:41.642Z,9.57
2018-12-30T13:24:09.475Z,9.48
2018-12-30T13:26:37.269Z,9.54
2018-12-30T13:29:05.070Z,9.51
2018-12-30T13:31:32.851Z,9.43
2018-12-30T13:34:24.062Z,9.46
2018-12-30T13:36:51.831Z,9.50
2018-12-30T13:39:20.942Z,9.56
2018-12-30T13:41:48.941Z,9.51
2018-12-30T13:44:16.832Z,9.48
2018-12-30T13:46:44.677Z,9.58
2018-12-30T13:49:12.450Z,9.46
2018-12-30T13:51:41.249Z,9.39
2018-12-30T13:54:09.035Z,9.36
2018-12-30T13:56:36.792Z,9.27
2018-12-30T13:59:04.639Z,9.14
2018-12-30T14:01:32.440Z,9.34
2018-12-30T14:04:05.279Z,9.19
2018-12-30T14:06:33.130Z,9.21
2018-12-30T14:09:00.996Z,9.18
2018-12-30T14:11:28.931Z,9.16
2018-12-30T14:13:56.798Z,9.10
2018-12-30T14:16:24.583Z,9.13
2018-12-30T14:18:53.671Z,9.11
2018-12-30T14:21:21.591Z,9.17
2018-12-30T14:23:49.419Z,8.94
2018-12-30T14:26:17.279Z,8.90
2018-12-30T14:28:45.157Z,9.09
2018-12-30T14:31:13.003Z,8.99
2018-12-30T14:33:40.855Z,9.04
2018-12-30T14:36:08.606Z,8.96
2018-12-30T14:38:36.400Z,8.83
2018-12-30T14:41:04.203Z,8.96
2018-12-30T14:43:33.327Z,8.94
2018-12-30T14:46:01.111Z,8.87
2018-12-30T14:48:28.886Z,8.91
2018-12-30T14:50:56.649Z,8.85
2018-12-30T14:53:24.426Z,8.87
2018-12-30T14:55:52.249Z,8.90
2018-12-30T14:58:22.893Z,8.88
2018-12-30T15:00:50.691Z,8.85
2018-12-30T15:03:18.454Z,8.87
2018-12-30T15:05:46.330Z,8.80
2018-12-30T15:08:14.260Z,8.92
2018-12-30T15:10:42.038Z,8.62
2018-12-30T15:13:09.850Z,8.61
2018-12-30T15:15:37.750Z,8.73
2018-12-30T15:18:05.552Z,8.75
2018-12-30T15:20:33.385Z,8.79
2018-12-30T15:23:01.152Z,8.80
2018-12-30T15:25:29.004Z,8.77
2018-12-30T15:27:56.891Z,8.70
2018-12-30T15:30:24.706Z,8.67
2018-12-30T15:32:52.712Z,8.74
2018-12-30T15:35:20.475Z,8.91
2018-12-30T15:37:48.250Z,8.81
2018-12-30T15:40:16.043Z,8.91
2018-12-30T15:42:43.806Z,8.92
2018-12-30T15:45:11.597Z,8.91
2018-12-30T15:47:39.358Z,8.95
2018-12-30T15:50:08.098Z,8.94
2018-12-30T15:52:36.218Z,8.92
2018-12-30T15:55:04.206Z,8.89
2018-12-30T15:57:32.294Z,8.89
2018-12-30T16:00:00.072Z,8.94
2018-12-30T16:02:27.868Z,8.94
2018-12-30T16:04:55.614Z,8.80
2018-12-30T16:07:23.678Z,8.93
2018-12-30T16:09:51.587Z,8.85
2018-12-30T16:12:19.747Z,8.86
2018-12-30T16:14:47.522Z,8.85
2018-12-30T16:17:15.332Z,8.95
2018-12-30T16:19:46.355Z,8.93
2018-12-30T16:22:14.146Z,8.84
2018-12-30T16:24:43.636Z,8.80
2018-12-30T16:27:11.381Z,8.68
2018-12-30T16:29:39.343Z,8.65
2018-12-30T16:32:07.369Z,8.79
2018-12-30T16:34:35.149Z,8.70
2018-12-30T16:37:02.977Z,8.75
2018-12-30T16:39:31.135Z,8.90
2018-12-30T16:41:58.977Z,8.85
2018-12-30T16:44:26.792Z,8.73
2018-12-30T16:46:54.876Z,8.82
2018-12-30T16:49:22.983Z,8.82
2018-12-30T16:51:50.757Z,8.79
2018-12-30T16:54:18.559Z,8.57
2018-12-30T16:56:46.336Z,8.68
2018-12-30T16:59:14.223Z,8.58
2018-12-30T17:01:42.069Z,8.66
2018-12-30T17:04:09.946Z,8.75
2018-12-30T17:06:37.757Z,8.56
2018-12-30T17:09:07.382Z,8.60
2018-12-30T17:11:35.435Z,8.63
2018-12-30T17:14:03.388Z,8.64
2018-12-30T17:16:31.325Z,8.44
2018-12-30T17:18:59.301Z,8.50
2018-12-30T17:21:27.105Z,8.50
2018-12-30T17:23:55.039Z,8.59
2018-12-30T17:26:23.393Z,8.58
2018-12-30T17:28:51.238Z,8.56
2018-12-30T17:31:19.036Z,8.45
2018-12-30T17:33:46.832Z,8.44
2018-12-30T17:36:14.682Z,8.56
2018-12-30T17:38:42.571Z,8.54
2018-12-30T17:41:10.382Z,8.64
2018-12-30T17:43:38.238Z,8.56
2018-12-30T17:46:06.057Z,8.55
2018-12-30T17:48:33.916Z,8.42
2018-12-30T17:51:01.797Z,8.56
2018-12-30T17:53:29.709Z,8.54
2018-12-30T17:55:57.530Z,8.49
2018-12-30T17:58:25.319Z,8.54
2018-12-30T18:00:53.130Z,8.50
2018-12-30T18:03:21.039Z,8.46
2018-12-30T18:05:48.852Z,8.57
2018-12-30T18:08:17.652Z,8.56
2018-12-30T18:10:45.538Z,8.52
2018-12-30T18:13:13.373Z,8.47
2018-12-30T18:15:41.165Z,8.45
2018-12-30T18:18:08.971Z,8.60
2018-12-30T18:20:36.765Z,8.47
2018-12-30T18:23:04.597Z,8.36
2018-12-30T18:25:32.590Z,8.53
2018-12-30T18:28:00.781Z,8.55
2018-12-30T18:30:28.652Z,8.75
2018-12-30T18:32:56.435Z,8.79
2018-12-30T18:35:24.979Z,8.69
2018-12-30T18:37:52.745Z,8.40
2018-12-30T18:40:20.590Z,8.42
2018-12-30T18:42:48.434Z,8.55
2018-12-30T18:45:16.254Z,8.48
2018-12-30T18:47:44.081Z,8.56
2018-12-30T18:50:11.939Z,8.42
2018-12-30T18:52:39.741Z,8.42
2018-12-30T18:55:07.552Z,8.35
2018-12-30T18:57:38.662Z,8.38
2018-12-30T19:00:10.685Z,8.61
2018-12-30T19:02:38.531Z,8.51
2018-12-30T19:05:07.442Z,8.45
2018-12-30T19:07:35.320Z,8.32
2018-12-30T19:10:03.306Z,8.49
2018-12-30T19:12:31.090Z,8.43
2018-12-30T19:14:58.944Z,8.43
2018-12-30T19:17:26.729Z,8.58
2018-12-30T19:19:54.515Z,8.27
2018-12-30T19:22:22.284Z,8.43
2018-12-30T19:24:50.076Z,8.32
2018-12-30T19:27:17.806Z,8.23
2018-12-30T19:29:45.610Z,8.25
2018-12-30T19:32:13.414Z,8.20
2018-12-30T19:34:41.186Z,8.27
2018-12-30T19:37:08.970Z,8.22
2018-12-30T19:39:36.735Z,8.22
2018-12-30T19:42:04.501Z,8.18
2018-12-30T19:44:32.294Z,8.08
2018-12-30T19:47:00.072Z,7.97
2018-12-30T19:49:27.877Z,8.04
2018-12-30T19:51:55.668Z,8.15
2018-12-30T19:54:23.452Z,8.21
2018-12-30T19:56:51.287Z,8.14
2018-12-30T19:59:19.083Z,8.24
2018-12-30T20:01:46.909Z,8.25
2018-12-30T20:04:14.809Z,8.24
2018-12-30T20:06:42.631Z,8.32
2018-12-30T20:09:10.408Z,8.30
2018-12-30T20:11:38.195Z,8.33
2018-12-30T20:14:06.145Z,8.21
2018-12-30T20:16:33.901Z,8.14
2018-12-30T20:19:01.685Z,8.24
2018-12-30T20:21:30.301Z,8.19
2018-12-30T20:23:58.907Z,8.23
2018-12-30T20:26:29.983Z,8.33
2018-12-30T20:28:56.409Z,8.36
2018-12-30T20:31:24.281Z,8.29
2018-12-30T20:33:52.087Z,8.26
2018-12-30T20:36:19.878Z,8.29
2018-12-30T20:38:47.642Z,8.27
2018-12-30T20:41:15.513Z,8.24
2018-12-30T20:43:43.352Z,8.21
2018-12-30T20:46:11.282Z,8.09
2018-12-30T20:48:39.051Z,8.09
2018-12-30T20:51:06.857Z,8.07
2018-12-30T20:53:34.672Z,8.08
2018-12-30T20:56:02.555Z,8.09
2018-12-30T20:58:30.371Z,8.05
2018-12-30T21:00:58.167Z,7.84
2018-12-30T21:04:14.594Z,7.92
2018-12-30T21:06:42.424Z,7.89
2018-12-30T21:09:10.206Z,8.07
2018-12-30T21:12:05.044Z,7.94
2018-12-30T21:14:32.818Z,7.94
2018-12-30T21:17:00.656Z,8.02
2018-12-30T21:19:28.398Z,7.93
2018-12-30T21:21:56.214Z,8.08
2018-12-30T21:24:23.976Z,7.99
2018-12-30T21:26:51.787Z,7.98
2018-12-30T21:29:19.542Z,8.02
2018-12-30T21:31:47.384Z,7.78
2018-12-30T21:34:15.154Z,7.87
2018-12-30T21:36:42.972Z,7.94
2018-12-30T21:39:10.794Z,7.97
2018-12-30T21:41:38.555Z,8.01
2018-12-30T21:44:07.132Z,8.07
2018-12-30T21:46:34.905Z,7.85
2018-12-30T21:49:02.735Z,7.82
2018-12-30T21:51:30.626Z,7.74
2018-12-30T21:53:58.441Z,7.84
2018-12-30T21:56:26.200Z,7.83
2018-12-30T21:58:54.020Z,7.79
2018-12-30T22:01:21.794Z,7.81
2018-12-30T22:03:49.575Z,7.73
2018-12-30T22:06:17.380Z,7.46
2018-12-30T22:08:45.198Z,7.28
2018-12-30T22:11:12.956Z,7.25
2018-12-30T22:13:40.743Z,7.23
2018-12-30T22:16:08.510Z,7.31
2018-12-30T22:18:36.349Z,7.42
2018-12-30T22:21:04.137Z,7.52
2018-12-30T22:23:32.246Z,7.67
2018-12-30T22:26:00.032Z,7.63
2018-12-30T22:28:27.845Z,7.54
2018-12-30T22:30:55.602Z,7.65
2018-12-30T22:33:23.371Z,7.67
2018-12-30T22:35:51.141Z,7.76
2018-12-30T22:38:18.945Z,7.92
2018-12-30T22:40:47.553Z,7.98
2018-12-30T22:43:15.387Z,7.88
2018-12-30T22:45:43.219Z,7.84
2018-12-30T22:48:11.043Z,7.90
2018-12-30T22:50:38.914Z,7.87
2018-12-30T22:53:06.722Z,7.72
2018-12-30T22:55:34.489Z,7.67
2018-12-30T22:58:02.329Z,7.63
2018-12-30T23:00:49.830Z,7.69
2018-12-30T23:03:17.620Z,7.70
2018-12-30T23:05:47.210Z,7.86
2018-12-30T23:08:15.084Z,7.74
2018-12-30T23:10:43.598Z,7.88
2018-12-30T23:13:11.679Z,7.79
2018-12-30T23:15:39.455Z,7.74
2018-12-30T23:18:07.250Z,7.61
2018-12-30T23:20:35.068Z,7.72
2018-12-30T23:23:03.068Z,7.82
2018-12-30T23:25:30.889Z,7.98
2018-12-30T23:27:58.661Z,7.89
2018-12-30T23:30:28.076Z,7.74
2018-12-30T23:32:55.871Z,7.89
2018-12-30T23:35:23.678Z,7.87
2018-12-30T23:37:51.463Z,7.86
2018-12-30T23:40:19.282Z,7.85
2018-12-30T23:42:47.109Z,7.80
2018-12-30T23:45:14.974Z,7.70
2018-12-30T23:47:42.724Z,7.70
2018-12-30T23:50:10.490Z,7.70
2018-12-30T23:52:38.280Z,7.79
2018-12-30T23:55:06.075Z,7.81
2018-12-30T23:57:33.874Z,7.64
